createdAt,value
2022-10-17T00:00:53.474Z,3.4
2022-10-17T00:03:10.858Z,6.2
2022-10-17T00:05:28.454Z,4.3
2022-10-17T00:07:45.917Z,7.5
2022-10-17T00:10:03.396Z,0.6
2022-10-17T00:12:21.111Z,6.4
2022-10-17T00:14:38.514Z,7
2022-10-17T00:16:56.017Z,6.9
2022-10-17T00:19:13.350Z,7.1
2022-10-17T00:21:30.814Z,6.3
2022-10-17T00:23:48.272Z,1.6
2022-10-17T00:26:05.831Z,6.5
2022-10-17T00:28:23.446Z,5.4
2022-10-17T00:30:40.865Z,5.9
2022-10-17T00:32:58.407Z,6.7
2022-10-17T00:35:15.981Z,7.3
2022-10-17T00:37:33.420Z,6.8
2022-10-17T00:39:50.926Z,2.1
2022-10-17T00:42:08.483Z,6.4
2022-10-17T00:44:25.883Z,6.4
2022-10-17T00:46:43.456Z,5.7
2022-10-17T00:49:01.031Z,6.8
2022-10-17T00:51:19.022Z,1.5
2022-10-17T00:53:36.220Z,6.1
2022-10-17T00:55:53.588Z,6
2022-10-17T00:58:11.439Z,6.8
2022-10-17T01:03:04.599Z,8
2022-10-17T01:05:22.175Z,6.2
2022-10-17T01:07:39.670Z,6.2
2022-10-17T01:09:57.164Z,6
2022-10-17T01:12:14.682Z,6.2
2022-10-17T01:14:32.106Z,5.9
2022-10-17T01:16:49.631Z,5.8
2022-10-17T01:19:07.187Z,6.1
2022-10-17T01:21:24.659Z,6
2022-10-17T01:23:42.078Z,6.1
2022-10-17T01:25:59.615Z,6
2022-10-17T01:28:17.187Z,5.7
2022-10-17T01:30:35.079Z,0.7
2022-10-17T01:32:52.109Z,5.7
2022-10-17T01:35:09.576Z,6.2
2022-10-17T01:37:27.147Z,6.1
2022-10-17T01:39:45.563Z,2.5
2022-10-17T01:42:02.441Z,5.9
2022-10-17T01:44:19.695Z,6.8
2022-10-17T01:46:37.293Z,6
2022-10-17T01:48:55.972Z,5.9
2022-10-17T01:51:12.306Z,6.3
2022-10-17T01:53:29.723Z,6.1
2022-10-17T01:55:47.283Z,5.6
2022-10-17T01:58:04.767Z,6.3
2022-10-17T02:00:22.270Z,5.9
2022-10-17T02:02:39.690Z,1.3
2022-10-17T02:04:57.330Z,5.8
2022-10-17T02:07:14.842Z,5.8
2022-10-17T02:09:32.256Z,6.1
2022-10-17T02:11:49.953Z,5.8
2022-10-17T02:14:07.359Z,6.2
2022-10-17T02:16:24.859Z,5.6
2022-10-17T02:18:42.384Z,6.1
2022-10-17T02:21:00.175Z,6
2022-10-17T02:25:35.430Z,3.7
2022-10-17T02:27:53.373Z,6.3
2022-10-17T02:30:10.884Z,1.1
2022-10-17T02:32:28.361Z,4.7
2022-10-17T02:34:46.000Z,5.9
2022-10-17T02:37:04.376Z,6.5
2022-10-17T02:39:21.366Z,2.8
2022-10-17T02:41:39.204Z,4.9
2022-10-17T02:43:57.688Z,5.1
2022-10-17T02:46:15.099Z,1.6
2022-10-17T02:48:32.159Z,6.3
2022-10-17T02:50:49.879Z,5.3
2022-10-17T02:53:07.418Z,5.6
2022-10-17T02:55:24.908Z,5.6
2022-10-17T02:57:42.880Z,5.9
2022-10-17T03:00:00.407Z,6.1
2022-10-17T03:02:17.931Z,5.3
2022-10-17T03:04:35.443Z,6.1
2022-10-17T03:06:53.244Z,5.3
2022-10-17T03:09:10.796Z,5.8
2022-10-17T03:11:28.662Z,6.7
2022-10-17T03:13:46.252Z,5.8
2022-10-17T03:16:03.869Z,6.1
2022-10-17T03:18:21.383Z,5.5
2022-10-17T03:20:38.931Z,2.6
2022-10-17T03:22:56.744Z,5.4
2022-10-17T03:25:14.324Z,-0.1
2022-10-17T03:27:32.522Z,5.1
2022-10-17T03:29:49.731Z,5.9
2022-10-17T03:32:07.582Z,5.3
2022-10-17T03:34:25.037Z,5
2022-10-17T03:36:42.927Z,5.3
2022-10-17T03:39:00.817Z,2.5
2022-10-17T03:41:17.844Z,4.8
2022-10-17T03:43:35.642Z,5.3
2022-10-17T03:45:53.447Z,5.7
2022-10-17T03:48:10.971Z,5.3
2022-10-17T03:50:28.518Z,5.6
2022-10-17T03:52:46.383Z,5.8
2022-10-17T03:55:03.725Z,5.4
2022-10-17T03:57:21.765Z,5.9
2022-10-17T03:59:39.278Z,1.1
2022-10-17T04:01:56.989Z,6.1
2022-10-17T04:04:14.487Z,4.8
2022-10-17T04:06:32.040Z,5.8
2022-10-17T04:08:49.884Z,5.6
2022-10-17T04:11:07.946Z,3.3
2022-10-17T04:13:25.032Z,4.4
2022-10-17T04:15:42.573Z,4.5
2022-10-17T04:18:00.395Z,4.9
2022-10-17T04:20:17.975Z,4.6
2022-10-17T04:22:35.874Z,4.7
2022-10-17T04:24:53.303Z,5
2022-10-17T04:27:10.848Z,1.7
2022-10-17T04:29:28.695Z,5.8
2022-10-17T04:31:46.217Z,4.9
2022-10-17T04:34:04.031Z,2.2
2022-10-17T04:36:21.748Z,5.1
2022-10-17T04:38:39.438Z,-0.3
2022-10-17T04:40:57.225Z,5.9
2022-10-17T04:43:15.031Z,3.3
2022-10-17T04:45:32.971Z,6.1
2022-10-17T04:47:51.010Z,4.4
2022-10-17T04:50:08.213Z,5.8
2022-10-17T04:52:25.738Z,5.2
2022-10-17T04:54:43.625Z,4.9
2022-10-17T04:57:02.479Z,-0.9
2022-10-17T04:59:19.099Z,4.5
2022-10-17T05:01:37.156Z,5.4
2022-10-17T05:03:54.488Z,5.2
2022-10-17T05:06:11.984Z,-1.3
2022-10-17T05:08:29.658Z,7.1
2022-10-17T05:10:47.366Z,5.2
2022-10-17T05:13:04.858Z,5.3
2022-10-17T05:15:22.572Z,5.6
2022-10-17T05:17:40.145Z,5.3
2022-10-17T05:19:58.383Z,5.8
2022-10-17T05:22:16.000Z,5.7
2022-10-17T05:24:34.339Z,6.3
2022-10-17T05:26:51.868Z,6.6
2022-10-17T05:29:11.052Z,6.4
2022-10-17T05:31:28.638Z,6.4
2022-10-17T05:33:46.325Z,7.9
2022-10-17T05:36:03.783Z,8.3
2022-10-17T05:38:21.320Z,7
2022-10-17T05:40:39.151Z,6.8
2022-10-17T05:42:56.687Z,4.4
2022-10-17T05:45:14.570Z,8.1
2022-10-17T05:47:32.558Z,8
2022-10-17T05:49:52.428Z,6.1
2022-10-17T05:52:07.978Z,9.9
2022-10-17T05:54:25.675Z,7.7
2022-10-17T05:56:43.333Z,8.6
2022-10-17T05:59:07.654Z,8.9
2022-10-17T06:01:25.348Z,9.5
2022-10-17T06:03:42.988Z,9.8
2022-10-17T06:06:00.666Z,10.3
2022-10-17T06:08:18.210Z,10.4
2022-10-17T06:10:35.786Z,7.4
2022-10-17T06:12:53.698Z,11.8
2022-10-17T06:15:11.309Z,11.7
2022-10-17T06:17:29.303Z,11.3
2022-10-17T06:19:46.615Z,7.2
2022-10-17T06:22:04.248Z,11.6
2022-10-17T06:24:22.103Z,11.4
2022-10-17T06:26:39.818Z,12.4
2022-10-17T06:28:57.518Z,12.8
2022-10-17T06:31:15.203Z,12.6
2022-10-17T06:33:32.646Z,12.8
2022-10-17T06:35:50.284Z,7.3
2022-10-17T06:38:08.097Z,13.6
2022-10-17T06:40:25.704Z,14.4
2022-10-17T06:42:43.335Z,12.4
2022-10-17T06:45:00.910Z,15.3
2022-10-17T06:47:19.317Z,7.9
2022-10-17T06:49:36.039Z,8.8
2022-10-17T06:51:53.570Z,16.7
2022-10-17T06:54:11.238Z,11.9
2022-10-17T06:56:28.910Z,17.6
2022-10-17T06:58:46.691Z,16.9
2022-10-17T07:01:04.491Z,17.8
2022-10-17T07:03:22.199Z,17.2
2022-10-17T07:07:57.131Z,18.9
2022-10-17T07:10:14.569Z,19.8
2022-10-17T07:12:32.012Z,14.1
2022-10-17T07:14:49.541Z,18.9
2022-10-17T07:17:07.128Z,19.1
2022-10-17T07:19:24.761Z,19.8
2022-10-17T07:21:42.342Z,21.1
2022-10-17T07:23:59.759Z,21.8
2022-10-17T07:26:17.212Z,17.8
2022-10-17T07:28:35.031Z,23.2
2022-10-17T07:30:53.752Z,22.3
2022-10-17T07:33:09.755Z,21.3
2022-10-17T07:35:27.356Z,16.8
2022-10-17T07:37:44.936Z,22.3
2022-10-17T07:40:02.428Z,22.4
2022-10-17T07:42:20.110Z,22.8
2022-10-17T07:44:37.570Z,24.4
2022-10-17T07:46:55.254Z,25.3
2022-10-17T07:49:12.857Z,27.6
2022-10-17T07:51:30.121Z,28.9
2022-10-17T07:53:48.700Z,29.2
2022-10-17T07:56:04.728Z,31.6
2022-10-17T07:58:22.226Z,35
2022-10-17T08:00:39.653Z,35.5
2022-10-17T08:02:57.763Z,38.9
2022-10-17T08:05:14.432Z,38.6
2022-10-17T08:07:35.898Z,40.2
2022-10-17T08:09:53.115Z,41.3
2022-10-17T08:12:10.424Z,42.7
2022-10-17T08:14:27.785Z,42.4
2022-10-17T08:16:45.120Z,41.4
2022-10-17T08:19:02.270Z,41.6
2022-10-17T08:21:19.504Z,38.3
2022-10-17T08:23:36.721Z,47.2
2022-10-17T08:25:54.035Z,38.1
2022-10-17T08:28:11.486Z,41.4
2022-10-17T08:30:28.875Z,39.8
2022-10-17T08:32:46.130Z,40.1
2022-10-17T08:35:03.947Z,39.9
2022-10-17T08:37:21.045Z,40.3
2022-10-17T08:39:38.673Z,41.3
2022-10-17T08:41:56.041Z,42.2
2022-10-17T08:44:13.219Z,42.5
2022-10-17T08:46:30.745Z,42.2
2022-10-17T08:48:48.141Z,42.9
2022-10-17T08:51:05.762Z,42.6
2022-10-17T08:53:23.084Z,42.3
2022-10-17T08:55:41.504Z,42.8
2022-10-17T08:58:07.407Z,42.4
2022-10-17T09:00:24.828Z,43.7
2022-10-17T09:02:42.322Z,44.2
2022-10-17T09:04:59.729Z,43.8
2022-10-17T09:07:17.389Z,42.6
2022-10-17T09:09:34.722Z,43.2
2022-10-17T09:11:52.092Z,43.3
2022-10-17T09:14:09.639Z,44.3
2022-10-17T09:16:27.180Z,44.4
2022-10-17T09:18:44.573Z,44.3
2022-10-17T09:21:02.377Z,44.1
2022-10-17T09:23:19.643Z,44.6
2022-10-17T09:25:37.743Z,43.4
2022-10-17T09:27:54.721Z,43.9
2022-10-17T09:30:17.140Z,44.4
2022-10-17T09:32:33.290Z,44.5
2022-10-17T09:35:12.191Z,45.1
2022-10-17T09:37:29.687Z,44.1
2022-10-17T09:39:47.372Z,42.7
2022-10-17T09:42:18.404Z,42.7
2022-10-17T09:44:35.824Z,43.5
2022-10-17T09:46:53.655Z,41.1
2022-10-17T09:49:12.224Z,40.1
2022-10-17T09:51:31.557Z,41.2
2022-10-17T09:53:49.744Z,40.4
2022-10-17T09:56:07.213Z,38.9
2022-10-17T09:58:24.854Z,38.8
2022-10-17T10:00:42.432Z,37.5
2022-10-17T10:02:59.956Z,36.6
2022-10-17T10:05:21.093Z,37.6
2022-10-17T10:07:39.369Z,38.6
2022-10-17T10:09:56.330Z,39.5
2022-10-17T10:12:13.756Z,38.6
2022-10-17T10:14:31.454Z,41.4
2022-10-17T10:16:49.294Z,40.7
2022-10-17T10:19:08.388Z,40.3
2022-10-17T10:21:24.085Z,41.5
2022-10-17T10:23:41.786Z,40.1
2022-10-17T10:25:59.321Z,39.9
2022-10-17T10:28:16.881Z,40.6
2022-10-17T10:30:34.937Z,38.8
2022-10-17T10:32:52.280Z,37.3
2022-10-17T10:35:09.609Z,38.1
2022-10-17T10:37:27.287Z,35.4
2022-10-17T10:39:44.877Z,37.7
2022-10-17T10:42:02.341Z,37.2
2022-10-17T10:44:20.001Z,33.4
2022-10-17T10:46:50.057Z,30.1
2022-10-17T10:49:07.717Z,23.9
2022-10-17T10:51:25.313Z,22.3
2022-10-17T10:53:43.452Z,21.5
2022-10-17T10:56:00.471Z,23.4
2022-10-17T10:58:18.465Z,22.4
2022-10-17T11:00:35.688Z,22.1
2022-10-17T11:02:53.206Z,24.4
2022-10-17T11:05:10.871Z,24.3
2022-10-17T11:09:45.996Z,26.2
2022-10-17T11:12:03.555Z,24.1
2022-10-17T11:14:21.164Z,21
2022-10-17T11:16:38.692Z,20.2
2022-10-17T11:18:56.333Z,19.2
2022-10-17T11:21:14.109Z,19.2
2022-10-17T11:23:31.662Z,15
2022-10-17T11:25:49.447Z,15.1
2022-10-17T11:28:07.199Z,16
2022-10-17T11:30:24.597Z,17.3
2022-10-17T11:32:42.790Z,12
2022-10-17T11:35:00.128Z,15
2022-10-17T11:37:18.518Z,15.5
2022-10-17T11:39:35.533Z,18.8
2022-10-17T11:41:55.160Z,15.3
2022-10-17T11:44:11.060Z,13.1
2022-10-17T11:46:28.583Z,15.4
2022-10-17T11:48:46.321Z,15.6
2022-10-17T11:52:11.842Z,14.9
2022-10-17T11:54:41.569Z,15.3
2022-10-17T11:56:59.275Z,16.4
2022-10-17T11:59:17.072Z,17.4
2022-10-17T12:01:34.364Z,15.3
2022-10-17T12:03:51.869Z,17.3
2022-10-17T12:06:10.009Z,14.8
2022-10-17T12:08:29.149Z,16.8
2022-10-17T12:13:02.283Z,16.1
2022-10-17T12:15:20.061Z,12.6
2022-10-17T12:17:37.560Z,14.3
2022-10-17T12:19:55.355Z,12.9
2022-10-17T12:22:12.737Z,12.6
2022-10-17T12:26:47.910Z,17.6
2022-10-17T12:29:05.606Z,14.4
2022-10-17T12:31:23.045Z,16.9
2022-10-17T12:33:52.595Z,11.3
2022-10-17T12:36:10.163Z,14.4
2022-10-17T12:38:27.772Z,15.1
2022-10-17T12:40:48.846Z,16.9
2022-10-17T12:43:02.942Z,16.5
2022-10-17T12:45:20.883Z,14.6
2022-10-17T12:47:38.154Z,19.8
2022-10-17T12:49:56.759Z,12.6
2022-10-17T12:52:30.194Z,18.6
2022-10-17T12:55:00.102Z,11.6
2022-10-17T12:57:06.058Z,12
2022-10-17T12:59:23.623Z,13.9
2022-10-17T13:01:55.906Z,11.2
2022-10-17T13:04:13.579Z,12.3
2022-10-17T13:06:31.137Z,11.8
2022-10-17T13:08:52.168Z,13.3
2022-10-17T13:11:06.277Z,18.6
2022-10-17T13:13:23.865Z,20.1
2022-10-17T13:15:41.472Z,17.6
2022-10-17T13:17:59.055Z,12.1
2022-10-17T13:20:22.077Z,13.4
2022-10-17T13:22:34.166Z,12.7
2022-10-17T13:24:51.746Z,13.8
2022-10-17T13:27:09.464Z,14.4
2022-10-17T13:29:27.046Z,13.3
2022-10-17T13:31:44.536Z,13.9
2022-10-17T13:34:02.150Z,6.7
2022-10-17T13:36:32.610Z,9.1
2022-10-17T13:38:51.320Z,12.1
2022-10-17T13:41:52.144Z,12.8
2022-10-17T13:44:09.641Z,11.6
2022-10-17T13:46:39.423Z,15
2022-10-17T13:48:55.959Z,13.1
2022-10-17T13:51:20.842Z,13.7
2022-10-17T13:53:38.405Z,12.9
2022-10-17T13:56:09.730Z,9.5
2022-10-17T13:58:20.931Z,14.2
2022-10-17T14:00:38.614Z,16.9
2022-10-17T14:02:56.396Z,12.1
2022-10-17T14:05:34.828Z,16.3
2022-10-17T14:08:12.925Z,13.6
2022-10-17T14:10:29.373Z,15.3
2022-10-17T14:12:50.342Z,12.8
2022-10-17T14:15:11.612Z,8.8
2022-10-17T14:17:31.019Z,12.8
2022-10-17T14:19:55.438Z,13.4
2022-10-17T14:23:21.802Z,14.7
2022-10-17T14:25:27.261Z,15.7
2022-10-17T14:27:45.062Z,9.9
2022-10-17T14:30:02.462Z,10
2022-10-17T14:32:29.850Z,16.2
2022-10-17T14:34:47.463Z,10.3
2022-10-17T14:37:19.720Z,13.6
2022-10-17T14:39:37.253Z,10.3
2022-10-17T14:42:14.339Z,15
2022-10-17T14:44:32.380Z,14.4
2022-10-17T14:46:50.866Z,16.7
2022-10-17T14:49:23.374Z,10.6
2022-10-17T14:51:44.589Z,15.8
2022-10-17T14:54:05.365Z,13.3
2022-10-17T14:56:21.228Z,13.2
2022-10-17T14:58:38.806Z,16.6
2022-10-17T15:01:11.984Z,16.1
2022-10-17T15:03:30.464Z,12.7
2022-10-17T15:05:47.084Z,12.5
2022-10-17T15:08:04.737Z,13.6
2022-10-17T15:10:21.951Z,17.1
2022-10-17T15:12:41.988Z,15.5
2022-10-17T15:15:03.705Z,13.9
2022-10-17T15:17:21.171Z,8.9
2022-10-17T15:19:38.773Z,14.4
2022-10-17T15:21:58.534Z,11.9
2022-10-17T15:24:16.132Z,12.4
2022-10-17T15:26:33.617Z,6.7
2022-10-17T15:28:51.235Z,13.3
2022-10-17T15:31:08.721Z,14
2022-10-17T15:33:26.169Z,16.9
2022-10-17T15:35:44.384Z,10.4
2022-10-17T15:38:01.200Z,9.5
2022-10-17T15:40:19.762Z,15.1
2022-10-17T15:42:35.969Z,9.1
2022-10-17T15:44:53.482Z,14.6
2022-10-17T15:47:11.010Z,14.9
2022-10-17T15:49:28.488Z,14.8
2022-10-17T15:51:46.241Z,15.2
2022-10-17T15:54:03.300Z,14.2
2022-10-17T15:56:23.039Z,14.3
2022-10-17T15:58:37.976Z,14.8
2022-10-17T16:00:55.603Z,14.6
2022-10-17T16:03:12.851Z,14.3
2022-10-17T16:05:30.132Z,14.4
2022-10-17T16:07:47.603Z,14.1
2022-10-17T16:10:04.944Z,13.9
2022-10-17T16:14:39.732Z,14.1
2022-10-17T16:16:57.069Z,14.1
2022-10-17T16:19:14.475Z,14.1
2022-10-17T16:23:49.086Z,14.1
2022-10-17T16:26:06.788Z,13.7
2022-10-17T16:28:24.625Z,12.9
2022-10-17T16:30:41.880Z,13.3
2022-10-17T16:32:59.578Z,10.3
2022-10-17T16:35:17.252Z,12.2
2022-10-17T16:37:34.662Z,10.4
2022-10-17T16:39:52.642Z,12.9
2022-10-17T16:42:10.195Z,11.9
2022-10-17T16:44:27.804Z,12.3
2022-10-17T16:46:45.328Z,11.8
2022-10-17T16:49:02.919Z,11.4
2022-10-17T16:51:20.479Z,11.9
2022-10-17T16:53:38.333Z,6.1
2022-10-17T16:55:56.195Z,11.5
2022-10-17T16:58:13.785Z,10.9
2022-10-17T17:00:31.303Z,9.3
2022-10-17T17:02:49.209Z,9
2022-10-17T17:05:06.901Z,11.1
2022-10-17T17:07:24.923Z,11.5
2022-10-17T17:09:42.571Z,11.6
2022-10-17T17:12:00.209Z,11.2
2022-10-17T17:14:18.171Z,11.8
2022-10-17T17:16:35.928Z,11.1
2022-10-17T17:18:58.744Z,11.3
2022-10-17T17:21:16.953Z,11.7
2022-10-17T17:23:34.034Z,11.6
2022-10-17T17:25:51.590Z,11.3
2022-10-17T17:28:09.184Z,11.4
2022-10-17T17:30:26.828Z,11.4
2022-10-17T17:32:44.410Z,11.1
2022-10-17T17:35:02.091Z,10.8
2022-10-17T17:37:19.747Z,10.9
2022-10-17T17:39:37.417Z,10.7
2022-10-17T17:41:55.033Z,11.1
2022-10-17T17:44:14.086Z,11.3
2022-10-17T17:46:30.420Z,11.1
2022-10-17T17:48:48.090Z,11.3
2022-10-17T17:51:05.733Z,10.9
2022-10-17T17:53:23.359Z,10.7
2022-10-17T17:55:41.015Z,11.1
2022-10-17T17:57:58.748Z,10.6
2022-10-17T18:00:16.581Z,10.8
2022-10-17T18:02:33.919Z,10.3
2022-10-17T18:04:51.661Z,10.6
2022-10-17T18:07:09.504Z,10.6
2022-10-17T18:09:26.878Z,10.9
2022-10-17T18:11:44.777Z,10.3
2022-10-17T18:14:02.238Z,10.2
2022-10-17T18:16:19.795Z,10.3
2022-10-17T18:18:37.296Z,6.9
2022-10-17T18:20:54.830Z,10.5
2022-10-17T18:23:12.441Z,7.8
2022-10-17T18:25:30.143Z,10.1
2022-10-17T18:27:47.847Z,9.9
2022-10-17T18:30:05.539Z,10.2
2022-10-17T18:32:23.128Z,11.1
2022-10-17T18:34:40.577Z,7.8
2022-10-17T18:36:58.407Z,6
2022-10-17T18:39:15.976Z,11.1
2022-10-17T18:41:33.697Z,10.2
2022-10-17T18:43:51.279Z,10.3
2022-10-17T18:46:10.904Z,3.8
2022-10-17T18:48:26.622Z,11.2
2022-10-17T18:50:44.070Z,10.6
2022-10-17T18:53:03.360Z,6.2
2022-10-17T18:55:19.386Z,10.6
2022-10-17T18:57:37.179Z,10
2022-10-17T18:59:54.882Z,10.4
2022-10-17T19:02:12.660Z,10.7
2022-10-17T19:04:30.281Z,10.8
2022-10-17T19:06:47.967Z,7.2
2022-10-17T19:09:05.482Z,8.6
2022-10-17T19:11:23.620Z,6.6
2022-10-17T19:13:41.234Z,11.8
2022-10-17T19:15:59.173Z,10.7
2022-10-17T19:18:16.838Z,10
2022-10-17T19:20:34.593Z,10.4
2022-10-17T19:25:10.007Z,10.6
2022-10-17T19:27:27.911Z,9.9
2022-10-17T19:29:45.345Z,6.9
2022-10-17T19:32:03.230Z,6.3
2022-10-17T19:34:20.988Z,7.4
2022-10-17T19:36:38.721Z,8
2022-10-17T19:38:56.799Z,11.3
2022-10-17T19:41:14.487Z,10.4
2022-10-17T19:43:32.131Z,9.8
2022-10-17T19:45:49.777Z,9.9
2022-10-17T19:48:07.593Z,7.1
2022-10-17T19:50:25.289Z,9.2
2022-10-17T19:52:43.155Z,9.9
2022-10-17T19:55:00.927Z,5.9
2022-10-17T19:57:18.821Z,9.6
2022-10-17T19:59:36.367Z,9.5
2022-10-17T20:01:54.357Z,9.1
2022-10-17T20:04:12.028Z,8.9
2022-10-17T20:06:37.965Z,9.1
2022-10-17T20:08:55.108Z,5.5
2022-10-17T20:11:12.799Z,8.9
2022-10-17T20:13:30.399Z,9.6
2022-10-17T20:15:48.005Z,8.9
2022-10-17T20:18:05.721Z,8.9
2022-10-17T20:20:23.498Z,8.9
2022-10-17T20:22:41.164Z,9.8
2022-10-17T20:25:17.328Z,8.7
2022-10-17T20:27:41.191Z,9
2022-10-17T20:29:58.748Z,7.4
2022-10-17T20:32:16.886Z,8.8
2022-10-17T20:34:33.931Z,5.4
2022-10-17T20:36:51.665Z,5.3
2022-10-17T20:39:09.373Z,8.4
2022-10-17T20:41:44.030Z,3.5
2022-10-17T20:44:01.684Z,8.5
2022-10-17T20:46:45.151Z,8.3
2022-10-17T20:48:59.404Z,8.1
2022-10-17T20:51:17.104Z,8.6
2022-10-17T20:53:49.762Z,8.6
2022-10-17T20:56:07.300Z,8.6
2022-10-17T20:58:24.801Z,8.4
2022-10-17T21:00:42.424Z,7.9
2022-10-17T21:03:00.110Z,8
2022-10-17T21:05:42.264Z,8.5
2022-10-17T21:07:59.977Z,8.1
2022-10-17T21:10:35.753Z,8.3
2022-10-17T21:12:50.174Z,8.5
2022-10-17T21:14:57.979Z,8
2022-10-17T21:17:15.777Z,8
2022-10-17T21:19:33.466Z,8.4
2022-10-17T21:21:50.992Z,3.2
2022-10-17T21:24:08.943Z,4.6
2022-10-17T21:26:27.809Z,8.6
2022-10-17T21:28:44.550Z,8.1
2022-10-17T21:31:02.233Z,7.9
2022-10-17T21:33:36.055Z,7.7
2022-10-17T21:35:53.720Z,7.4
2022-10-17T21:38:11.391Z,7.8
2022-10-17T21:40:29.014Z,7.8
2022-10-17T21:42:46.817Z,7.6
2022-10-17T21:45:07.433Z,7.8
2022-10-17T21:47:23.246Z,7.8
2022-10-17T21:49:52.972Z,4
2022-10-17T21:52:11.256Z,7.5
2022-10-17T21:54:28.155Z,7.6
2022-10-17T21:56:45.868Z,3.4
2022-10-17T21:59:03.398Z,8.6
2022-10-17T22:01:21.006Z,5.7
2022-10-17T22:03:41.264Z,7.1
2022-10-17T22:06:02.290Z,4.5
2022-10-17T22:08:34.874Z,7.3
2022-10-17T22:10:52.613Z,7.6
2022-10-17T22:13:10.356Z,7.6
2022-10-17T22:15:28.119Z,7.7
2022-10-17T22:17:45.773Z,7.5
2022-10-17T22:20:03.488Z,7.5
2022-10-17T22:22:21.230Z,7.2
2022-10-17T22:24:38.976Z,7.1
2022-10-17T22:26:56.741Z,7.2
2022-10-17T22:29:14.436Z,7.3
2022-10-17T22:31:32.133Z,7.9
2022-10-17T22:33:49.812Z,7.4
2022-10-17T22:36:07.362Z,7
2022-10-17T22:38:24.798Z,3.5
2022-10-17T22:40:42.945Z,7.6
2022-10-17T22:43:00.914Z,7.4
2022-10-17T22:45:17.695Z,3.9
2022-10-17T22:47:35.068Z,6.6
2022-10-17T22:49:52.796Z,6.8
2022-10-17T22:52:10.472Z,7.2
2022-10-17T22:54:28.214Z,6.9
2022-10-17T22:56:45.901Z,6.4
2022-10-17T22:59:03.272Z,4.6
2022-10-17T23:01:21.162Z,6.6
2022-10-17T23:03:38.757Z,6.7
2022-10-17T23:05:56.405Z,6.9
2022-10-17T23:08:14.039Z,6.5
2022-10-17T23:10:31.605Z,6.1
2022-10-17T23:12:49.084Z,5.5
2022-10-17T23:15:06.685Z,5.9
2022-10-17T23:17:24.187Z,6.5
2022-10-17T23:19:41.788Z,6.2
2022-10-17T23:21:59.993Z,6.6
2022-10-17T23:24:17.803Z,7.1
2022-10-17T23:26:35.431Z,6.8
2022-10-17T23:28:54.066Z,6.7
2022-10-17T23:31:10.972Z,6.6
2022-10-17T23:33:28.676Z,6.6
2022-10-17T23:35:46.452Z,7
2022-10-17T23:38:03.994Z,6.5
2022-10-17T23:40:21.534Z,7.2
2022-10-17T23:42:39.211Z,5.3
2022-10-17T23:44:56.798Z,4.3
2022-10-17T23:47:14.667Z,7.2
2022-10-17T23:49:32.524Z,2.9
2022-10-17T23:51:50.019Z,6.4
2022-10-17T23:54:07.595Z,5.9
2022-10-17T23:56:25.412Z,3.9
2022-10-17T23:58:42.966Z,5
